sensor_id;sensor_type;location;lat;lon;timestamp;P1;durP1;ratioP1;P2;durP2;ratioP2
13032;SDS011;6583;42.632;23.298;2023-04-25T00:01:45;2.67;;;2.47;;
13032;SDS011;6583;42.632;23.298;2023-04-25T00:04:12;3.20;;;2.40;;
13032;SDS011;6583;42.632;23.298;2023-04-25T00:06:39;2.87;;;2.60;;
13032;SDS011;6583;42.632;23.298;2023-04-25T00:09:07;2.23;;;2.03;;
13032;SDS011;6583;42.632;23.298;2023-04-25T00:11:35;2.47;;;1.80;;
13032;SDS011;6583;42.632;23.298;2023-04-25T00:14:02;1.73;;;1.63;;
13032;SDS011;6583;42.632;23.298;2023-04-25T00:16:28;1.40;;;1.30;;
13032;SDS011;6583;42.632;23.298;2023-04-25T00:18:58;1.10;;;1.00;;
13032;SDS011;6583;42.632;23.298;2023-04-25T00:21:26;1.63;;;1.03;;
13032;SDS011;6583;42.632;23.298;2023-04-25T00:23:53;1.30;;;1.20;;
13032;SDS011;6583;42.632;23.298;2023-04-25T00:26:22;1.53;;;1.10;;
13032;SDS011;6583;42.632;23.298;2023-04-25T00:28:48;2.17;;;1.00;;
13032;SDS011;6583;42.632;23.298;2023-04-25T00:31:15;1.00;;;1.00;;
13032;SDS011;6583;42.632;23.298;2023-04-25T00:33:42;0.90;;;0.90;;
13032;SDS011;6583;42.632;23.298;2023-04-25T00:36:08;1.13;;;1.10;;
13032;SDS011;6583;42.632;23.298;2023-04-25T00:38:36;1.67;;;1.27;;
13032;SDS011;6583;42.632;23.298;2023-04-25T00:41:04;1.67;;;1.30;;
13032;SDS011;6583;42.632;23.298;2023-04-25T00:43:33;1.30;;;1.20;;
13032;SDS011;6583;42.632;23.298;2023-04-25T00:46:01;1.60;;;1.50;;
13032;SDS011;6583;42.632;23.298;2023-04-25T00:48:28;1.40;;;1.30;;
13032;SDS011;6583;42.632;23.298;2023-04-25T00:50:55;2.73;;;2.40;;
13032;SDS011;6583;42.632;23.298;2023-04-25T00:53:25;2.30;;;2.10;;
13032;SDS011;6583;42.632;23.298;2023-04-25T00:55:54;3.37;;;2.20;;
13032;SDS011;6583;42.632;23.298;2023-04-25T00:58:22;3.50;;;2.40;;
13032;SDS011;6583;42.632;23.298;2023-04-25T01:00:51;3.00;;;2.70;;
13032;SDS011;6583;42.632;23.298;2023-04-25T01:03:18;3.43;;;3.13;;
13032;SDS011;6583;42.632;23.298;2023-04-25T01:05:45;3.70;;;3.40;;
13032;SDS011;6583;42.632;23.298;2023-04-25T01:08:12;4.00;;;3.60;;
13032;SDS011;6583;42.632;23.298;2023-04-25T01:10:39;4.87;;;4.47;;
13032;SDS011;6583;42.632;23.298;2023-04-25T01:13:06;4.33;;;3.93;;
13032;SDS011;6583;42.632;23.298;2023-04-25T01:15:33;4.40;;;3.93;;
13032;SDS011;6583;42.632;23.298;2023-04-25T01:18:02;4.70;;;4.20;;
13032;SDS011;6583;42.632;23.298;2023-04-25T01:20:29;4.80;;;4.10;;
13032;SDS011;6583;42.632;23.298;2023-04-25T01:22:59;6.20;;;4.50;;
13032;SDS011;6583;42.632;23.298;2023-04-25T01:25:27;5.63;;;4.33;;
13032;SDS011;6583;42.632;23.298;2023-04-25T01:27:55;5.57;;;4.93;;
13032;SDS011;6583;42.632;23.298;2023-04-25T01:30:22;5.80;;;5.23;;
13032;SDS011;6583;42.632;23.298;2023-04-25T01:32:48;6.00;;;5.30;;
13032;SDS011;6583;42.632;23.298;2023-04-25T01:35:15;5.40;;;4.90;;
13032;SDS011;6583;42.632;23.298;2023-04-25T01:37:42;5.57;;;5.07;;
13032;SDS011;6583;42.632;23.298;2023-04-25T01:40:11;5.50;;;5.00;;
13032;SDS011;6583;42.632;23.298;2023-04-25T01:42:41;6.70;;;5.47;;
13032;SDS011;6583;42.632;23.298;2023-04-25T01:45:10;6.80;;;6.20;;
13032;SDS011;6583;42.632;23.298;2023-04-25T01:47:37;7.00;;;6.23;;
13032;SDS011;6583;42.632;23.298;2023-04-25T01:50:05;7.07;;;5.47;;
13032;SDS011;6583;42.632;23.298;2023-04-25T01:52:33;6.53;;;5.93;;
13032;SDS011;6583;42.632;23.298;2023-04-25T01:55:00;7.47;;;6.40;;
13032;SDS011;6583;42.632;23.298;2023-04-25T01:57:29;6.80;;;6.20;;
13032;SDS011;6583;42.632;23.298;2023-04-25T01:59:57;7.50;;;6.70;;
13032;SDS011;6583;42.632;23.298;2023-04-25T02:02:25;6.97;;;6.30;;
13032;SDS011;6583;42.632;23.298;2023-04-25T02:04:52;6.40;;;5.80;;
13032;SDS011;6583;42.632;23.298;2023-04-25T02:07:19;6.93;;;5.60;;
13032;SDS011;6583;42.632;23.298;2023-04-25T02:09:46;7.20;;;5.63;;
13032;SDS011;6583;42.632;23.298;2023-04-25T02:12:12;7.33;;;5.67;;
13032;SDS011;6583;42.632;23.298;2023-04-25T02:14:40;6.17;;;5.00;;
13032;SDS011;6583;42.632;23.298;2023-04-25T02:17:07;6.00;;;5.37;;
13032;SDS011;6583;42.632;23.298;2023-04-25T02:19:34;5.20;;;4.70;;
13032;SDS011;6583;42.632;23.298;2023-04-25T02:22:00;5.30;;;4.77;;
13032;SDS011;6583;42.632;23.298;2023-04-25T02:24:27;4.40;;;4.00;;
13032;SDS011;6583;42.632;23.298;2023-04-25T02:26:54;4.50;;;4.10;;
13032;SDS011;6583;42.632;23.298;2023-04-25T02:29:21;5.20;;;3.73;;
13032;SDS011;6583;42.632;23.298;2023-04-25T02:31:49;4.60;;;4.20;;
13032;SDS011;6583;42.632;23.298;2023-04-25T02:34:16;4.73;;;4.03;;
13032;SDS011;6583;42.632;23.298;2023-04-25T02:36:42;5.10;;;4.50;;
13032;SDS011;6583;42.632;23.298;2023-04-25T02:39:09;6.10;;;4.70;;
13032;SDS011;6583;42.632;23.298;2023-04-25T02:41:36;5.33;;;4.53;;
13032;SDS011;6583;42.632;23.298;2023-04-25T02:44:03;5.87;;;4.40;;
13032;SDS011;6583;42.632;23.298;2023-04-25T02:46:29;5.37;;;4.50;;
13032;SDS011;6583;42.632;23.298;2023-04-25T02:48:57;6.17;;;4.87;;
13032;SDS011;6583;42.632;23.298;2023-04-25T02:51:24;4.90;;;4.43;;
13032;SDS011;6583;42.632;23.298;2023-04-25T02:53:51;6.40;;;5.80;;
13032;SDS011;6583;42.632;23.298;2023-04-25T02:56:18;6.13;;;5.53;;
13032;SDS011;6583;42.632;23.298;2023-04-25T02:58:44;7.13;;;6.23;;
13032;SDS011;6583;42.632;23.298;2023-04-25T03:01:11;8.10;;;6.57;;
13032;SDS011;6583;42.632;23.298;2023-04-25T03:03:38;8.57;;;6.80;;
13032;SDS011;6583;42.632;23.298;2023-04-25T03:06:06;7.53;;;6.73;;
13032;SDS011;6583;42.632;23.298;2023-04-25T03:08:33;7.13;;;6.43;;
13032;SDS011;6583;42.632;23.298;2023-04-25T03:10:59;17.43;;;7.57;;
13032;SDS011;6583;42.632;23.298;2023-04-25T03:13:26;8.97;;;7.10;;
13032;SDS011;6583;42.632;23.298;2023-04-25T03:15:54;8.47;;;7.53;;
13032;SDS011;6583;42.632;23.298;2023-04-25T03:18:21;9.57;;;7.63;;
13032;SDS011;6583;42.632;23.298;2023-04-25T03:20:48;8.67;;;7.77;;
13032;SDS011;6583;42.632;23.298;2023-04-25T03:23:16;9.20;;;8.20;;
13032;SDS011;6583;42.632;23.298;2023-04-25T03:25:42;10.30;;;8.67;;
13032;SDS011;6583;42.632;23.298;2023-04-25T03:28:09;9.10;;;8.20;;
13032;SDS011;6583;42.632;23.298;2023-04-25T03:30:36;9.97;;;8.97;;
13032;SDS011;6583;42.632;23.298;2023-04-25T03:33:02;13.20;;;11.47;;
13032;SDS011;6583;42.632;23.298;2023-04-25T03:35:29;12.30;;;10.10;;
13032;SDS011;6583;42.632;23.298;2023-04-25T03:37:56;12.03;;;10.83;;
13032;SDS011;6583;42.632;23.298;2023-04-25T03:40:24;10.53;;;9.50;;
13032;SDS011;6583;42.632;23.298;2023-04-25T03:42:50;11.60;;;10.40;;
13032;SDS011;6583;42.632;23.298;2023-04-25T03:45:17;11.50;;;10.30;;
13032;SDS011;6583;42.632;23.298;2023-04-25T03:47:44;11.97;;;10.77;;
13032;SDS011;6583;42.632;23.298;2023-04-25T03:50:10;12.00;;;10.23;;
13032;SDS011;6583;42.632;23.298;2023-04-25T03:52:37;12.17;;;10.87;;
13032;SDS011;6583;42.632;23.298;2023-04-25T03:55:04;10.10;;;8.80;;
13032;SDS011;6583;42.632;23.298;2023-04-25T03:57:33;19.33;;;9.80;;
13032;SDS011;6583;42.632;23.298;2023-04-25T03:59:59;11.20;;;7.23;;
13032;SDS011;6583;42.632;23.298;2023-04-25T04:02:26;7.03;;;6.43;;
13032;SDS011;6583;42.632;23.298;2023-04-25T04:04:53;6.67;;;6.07;;
13032;SDS011;6583;42.632;23.298;2023-04-25T04:07:21;6.27;;;5.63;;
13032;SDS011;6583;42.632;23.298;2023-04-25T04:09:47;5.33;;;4.77;;
13032;SDS011;6583;42.632;23.298;2023-04-25T04:12:14;7.33;;;5.83;;
13032;SDS011;6583;42.632;23.298;2023-04-25T04:14:42;4.67;;;4.20;;
13032;SDS011;6583;42.632;23.298;2023-04-25T04:17:09;4.50;;;4.10;;
13032;SDS011;6583;42.632;23.298;2023-04-25T04:19:35;5.20;;;3.90;;
13032;SDS011;6583;42.632;23.298;2023-04-25T04:22:02;6.63;;;4.73;;
13032;SDS011;6583;42.632;23.298;2023-04-25T04:24:29;6.30;;;4.57;;
13032;SDS011;6583;42.632;23.298;2023-04-25T04:26:55;3.93;;;3.53;;
13032;SDS011;6583;42.632;23.298;2023-04-25T04:29:22;4.50;;;4.10;;
13032;SDS011;6583;42.632;23.298;2023-04-25T04:31:51;7.73;;;6.97;;
13032;SDS011;6583;42.632;23.298;2023-04-25T04:34:18;10.10;;;8.97;;
13032;SDS011;6583;42.632;23.298;2023-04-25T04:36:45;12.17;;;10.87;;
13032;SDS011;6583;42.632;23.298;2023-04-25T04:39:12;13.97;;;12.47;;
13032;SDS011;6583;42.632;23.298;2023-04-25T04:41:39;14.43;;;12.23;;
13032;SDS011;6583;42.632;23.298;2023-04-25T04:44:06;13.37;;;11.77;;
13032;SDS011;6583;42.632;23.298;2023-04-25T04:46:33;12.20;;;10.90;;
13032;SDS011;6583;42.632;23.298;2023-04-25T04:49:04;12.47;;;10.33;;
13032;SDS011;6583;42.632;23.298;2023-04-25T04:51:31;9.43;;;8.43;;
13032;SDS011;6583;42.632;23.298;2023-04-25T04:53:58;5.03;;;4.53;;
13032;SDS011;6583;42.632;23.298;2023-04-25T04:56:27;6.70;;;3.70;;
13032;SDS011;6583;42.632;23.298;2023-04-25T04:58:54;3.90;;;3.60;;
13032;SDS011;6583;42.632;23.298;2023-04-25T05:01:21;3.37;;;2.97;;
13032;SDS011;6583;42.632;23.298;2023-04-25T05:03:48;2.80;;;2.43;;
13032;SDS011;6583;42.632;23.298;2023-04-25T05:06:16;3.97;;;2.60;;
13032;SDS011;6583;42.632;23.298;2023-04-25T05:08:43;6.17;;;5.57;;
13032;SDS011;6583;42.632;23.298;2023-04-25T05:11:09;13.80;;;11.97;;
13032;SDS011;6583;42.632;23.298;2023-04-25T05:13:36;15.47;;;13.23;;
13032;SDS011;6583;42.632;23.298;2023-04-25T05:16:03;17.53;;;14.93;;
13032;SDS011;6583;42.632;23.298;2023-04-25T05:18:30;21.73;;;16.93;;
13032;SDS011;6583;42.632;23.298;2023-04-25T05:20:56;22.60;;;18.63;;
13032;SDS011;6583;42.632;23.298;2023-04-25T05:23:24;20.20;;;18.00;;
13032;SDS011;6583;42.632;23.298;2023-04-25T05:25:52;20.07;;;17.37;;
13032;SDS011;6583;42.632;23.298;2023-04-25T05:28:19;22.07;;;18.33;;
13032;SDS011;6583;42.632;23.298;2023-04-25T05:30:46;22.80;;;19.20;;
13032;SDS011;6583;42.632;23.298;2023-04-25T05:33:13;22.77;;;20.00;;
13032;SDS011;6583;42.632;23.298;2023-04-25T05:35:39;23.80;;;20.10;;
13032;SDS011;6583;42.632;23.298;2023-04-25T05:38:06;21.13;;;18.53;;
13032;SDS011;6583;42.632;23.298;2023-04-25T05:40:34;21.27;;;17.03;;
13032;SDS011;6583;42.632;23.298;2023-04-25T05:43:01;17.27;;;15.40;;
13032;SDS011;6583;42.632;23.298;2023-04-25T05:45:28;16.73;;;14.90;;
13032;SDS011;6583;42.632;23.298;2023-04-25T05:47:54;17.30;;;15.27;;
13032;SDS011;6583;42.632;23.298;2023-04-25T05:50:21;18.10;;;16.20;;
13032;SDS011;6583;42.632;23.298;2023-04-25T05:52:48;18.27;;;15.53;;
13032;SDS011;6583;42.632;23.298;2023-04-25T05:55:14;16.50;;;14.80;;
13032;SDS011;6583;42.632;23.298;2023-04-25T05:57:42;15.93;;;14.23;;
13032;SDS011;6583;42.632;23.298;2023-04-25T06:00:11;20.37;;;17.30;;
13032;SDS011;6583;42.632;23.298;2023-04-25T06:02:40;19.63;;;15.20;;
13032;SDS011;6583;42.632;23.298;2023-04-25T06:05:07;15.03;;;13.17;;
13032;SDS011;6583;42.632;23.298;2023-04-25T06:07:34;15.67;;;13.43;;
13032;SDS011;6583;42.632;23.298;2023-04-25T06:10:01;16.30;;;14.40;;
13032;SDS011;6583;42.632;23.298;2023-04-25T06:12:31;15.90;;;14.00;;
13032;SDS011;6583;42.632;23.298;2023-04-25T06:14:59;15.73;;;14.03;;
13032;SDS011;6583;42.632;23.298;2023-04-25T06:17:26;16.87;;;14.47;;
13032;SDS011;6583;42.632;23.298;2023-04-25T06:19:53;17.43;;;14.73;;
13032;SDS011;6583;42.632;23.298;2023-04-25T06:22:19;15.93;;;14.23;;
13032;SDS011;6583;42.632;23.298;2023-04-25T06:24:46;17.13;;;14.53;;
13032;SDS011;6583;42.632;23.298;2023-04-25T06:27:13;18.23;;;15.10;;
13032;SDS011;6583;42.632;23.298;2023-04-25T06:29:39;17.70;;;15.20;;
13032;SDS011;6583;42.632;23.298;2023-04-25T06:32:07;18.17;;;15.47;;
13032;SDS011;6583;42.632;23.298;2023-04-25T06:34:34;21.20;;;18.10;;
13032;SDS011;6583;42.632;23.298;2023-04-25T06:37:01;21.83;;;18.63;;
13032;SDS011;6583;42.632;23.298;2023-04-25T06:39:27;24.17;;;19.53;;
13032;SDS011;6583;42.632;23.298;2023-04-25T06:41:54;25.43;;;20.60;;
13032;SDS011;6583;42.632;23.298;2023-04-25T06:44:21;27.07;;;22.00;;
13032;SDS011;6583;42.632;23.298;2023-04-25T06:46:48;22.67;;;19.07;;
13032;SDS011;6583;42.632;23.298;2023-04-25T06:49:16;26.47;;;20.03;;
13032;SDS011;6583;42.632;23.298;2023-04-25T06:51:42;21.67;;;17.87;;
13032;SDS011;6583;42.632;23.298;2023-04-25T06:54:09;22.00;;;19.57;;
13032;SDS011;6583;42.632;23.298;2023-04-25T06:56:36;23.97;;;19.90;;
13032;SDS011;6583;42.632;23.298;2023-04-25T06:59:02;23.47;;;19.47;;
13032;SDS011;6583;42.632;23.298;2023-04-25T07:01:29;22.37;;;18.60;;
13032;SDS011;6583;42.632;23.298;2023-04-25T07:03:56;20.03;;;17.63;;
13032;SDS011;6583;42.632;23.298;2023-04-25T07:06:24;16.93;;;14.53;;
13032;SDS011;6583;42.632;23.298;2023-04-25T07:08:52;17.53;;;14.73;;
13032;SDS011;6583;42.632;23.298;2023-04-25T07:11:20;19.40;;;16.47;;
13032;SDS011;6583;42.632;23.298;2023-04-25T07:13:47;17.00;;;14.70;;
13032;SDS011;6583;42.632;23.298;2023-04-25T07:16:14;14.20;;;12.07;;
13032;SDS011;6583;42.632;23.298;2023-04-25T07:18:40;14.77;;;12.17;;
13032;SDS011;6583;42.632;23.298;2023-04-25T07:21:07;12.40;;;11.00;;
13032;SDS011;6583;42.632;23.298;2023-04-25T07:23:35;13.77;;;12.13;;
13032;SDS011;6583;42.632;23.298;2023-04-25T07:26:02;15.30;;;13.03;;
13032;SDS011;6583;42.632;23.298;2023-04-25T07:28:29;17.10;;;13.27;;
13032;SDS011;6583;42.632;23.298;2023-04-25T07:30:55;15.00;;;12.70;;
13032;SDS011;6583;42.632;23.298;2023-04-25T07:33:23;14.53;;;12.03;;
13032;SDS011;6583;42.632;23.298;2023-04-25T07:35:49;15.97;;;12.17;;
13032;SDS011;6583;42.632;23.298;2023-04-25T07:38:16;15.17;;;11.23;;
13032;SDS011;6583;42.632;23.298;2023-04-25T07:40:44;13.60;;;10.17;;
13032;SDS011;6583;42.632;23.298;2023-04-25T07:43:11;11.77;;;9.90;;
13032;SDS011;6583;42.632;23.298;2023-04-25T07:45:41;12.90;;;10.70;;
13032;SDS011;6583;42.632;23.298;2023-04-25T07:48:08;11.03;;;9.60;;
13032;SDS011;6583;42.632;23.298;2023-04-25T07:50:35;13.40;;;9.67;;
13032;SDS011;6583;42.632;23.298;2023-04-25T07:53:01;10.23;;;9.13;;
13032;SDS011;6583;42.632;23.298;2023-04-25T07:55:28;10.37;;;9.27;;
13032;SDS011;6583;42.632;23.298;2023-04-25T07:57:56;11.87;;;9.60;;
13032;SDS011;6583;42.632;23.298;2023-04-25T08:00:23;16.17;;;10.33;;
13032;SDS011;6583;42.632;23.298;2023-04-25T08:02:50;10.70;;;9.60;;
13032;SDS011;6583;42.632;23.298;2023-04-25T08:05:17;12.87;;;10.43;;
13032;SDS011;6583;42.632;23.298;2023-04-25T08:07:43;12.80;;;11.30;;
13032;SDS011;6583;42.632;23.298;2023-04-25T08:10:13;14.20;;;11.50;;
13032;SDS011;6583;42.632;23.298;2023-04-25T08:12:40;12.43;;;10.63;;
13032;SDS011;6583;42.632;23.298;2023-04-25T08:15:08;13.93;;;9.90;;
13032;SDS011;6583;42.632;23.298;2023-04-25T08:17:35;11.30;;;10.20;;
13032;SDS011;6583;42.632;23.298;2023-04-25T08:20:02;12.37;;;9.77;;
13032;SDS011;6583;42.632;23.298;2023-04-25T08:22:31;7.20;;;6.50;;
13032;SDS011;6583;42.632;23.298;2023-04-25T08:24:58;8.57;;;7.50;;
13032;SDS011;6583;42.632;23.298;2023-04-25T08:27:25;10.37;;;8.00;;
13032;SDS011;6583;42.632;23.298;2023-04-25T08:29:52;9.53;;;7.87;;
13032;SDS011;6583;42.632;23.298;2023-04-25T08:32:20;9.00;;;6.77;;
13032;SDS011;6583;42.632;23.298;2023-04-25T08:34:47;7.97;;;7.17;;
13032;SDS011;6583;42.632;23.298;2023-04-25T08:37:14;8.50;;;7.67;;
13032;SDS011;6583;42.632;23.298;2023-04-25T08:39:40;9.83;;;7.03;;
13032;SDS011;6583;42.632;23.298;2023-04-25T08:42:07;5.97;;;5.37;;
13032;SDS011;6583;42.632;23.298;2023-04-25T08:44:34;5.60;;;5.10;;
13032;SDS011;6583;42.632;23.298;2023-04-25T08:47:01;3.63;;;3.33;;
13032;SDS011;6583;42.632;23.298;2023-04-25T08:49:30;3.20;;;2.53;;
13032;SDS011;6583;42.632;23.298;2023-04-25T08:51:59;3.63;;;2.90;;
13032;SDS011;6583;42.632;23.298;2023-04-25T08:54:27;2.20;;;2.00;;
13032;SDS011;6583;42.632;23.298;2023-04-25T08:56:56;2.47;;;2.10;;
13032;SDS011;6583;42.632;23.298;2023-04-25T08:59:23;2.17;;;2.03;;
13032;SDS011;6583;42.632;23.298;2023-04-25T09:01:50;2.20;;;2.10;;
13032;SDS011;6583;42.632;23.298;2023-04-25T09:04:17;1.87;;;1.77;;
13032;SDS011;6583;42.632;23.298;2023-04-25T09:06:45;2.00;;;1.90;;
13032;SDS011;6583;42.632;23.298;2023-04-25T09:09:12;2.87;;;2.37;;
13032;SDS011;6583;42.632;23.298;2023-04-25T09:11:39;6.90;;;6.20;;
13032;SDS011;6583;42.632;23.298;2023-04-25T09:14:13;9.17;;;7.93;;
13032;SDS011;6583;42.632;23.298;2023-04-25T09:16:59;9.00;;;8.10;;
13032;SDS011;6583;42.632;23.298;2023-04-25T09:19:27;8.00;;;6.93;;
13032;SDS011;6583;42.632;23.298;2023-04-25T09:21:57;7.70;;;6.53;;
13032;SDS011;6583;42.632;23.298;2023-04-25T09:24:30;8.47;;;7.00;;
13032;SDS011;6583;42.632;23.298;2023-04-25T09:27:02;9.50;;;7.80;;
13032;SDS011;6583;42.632;23.298;2023-04-25T09:29:30;9.57;;;8.10;;
13032;SDS011;6583;42.632;23.298;2023-04-25T09:32:10;11.00;;;8.47;;
13032;SDS011;6583;42.632;23.298;2023-04-25T09:34:41;10.93;;;7.90;;
13032;SDS011;6583;42.632;23.298;2023-04-25T09:37:16;8.87;;;7.97;;
13032;SDS011;6583;42.632;23.298;2023-04-25T09:39:44;7.27;;;5.50;;
13032;SDS011;6583;42.632;23.298;2023-04-25T09:42:11;5.60;;;4.60;;
13032;SDS011;6583;42.632;23.298;2023-04-25T09:44:41;4.23;;;3.67;;
13032;SDS011;6583;42.632;23.298;2023-04-25T09:47:10;5.23;;;3.67;;
13032;SDS011;6583;42.632;23.298;2023-04-25T09:49:38;3.60;;;3.27;;
13032;SDS011;6583;42.632;23.298;2023-04-25T09:52:07;3.63;;;3.20;;
13032;SDS011;6583;42.632;23.298;2023-04-25T09:54:35;3.40;;;3.10;;
13032;SDS011;6583;42.632;23.298;2023-04-25T09:57:03;4.07;;;2.80;;
13032;SDS011;6583;42.632;23.298;2023-04-25T09:59:39;3.43;;;3.13;;
13032;SDS011;6583;42.632;23.298;2023-04-25T10:02:08;3.10;;;2.77;;
13032;SDS011;6583;42.632;23.298;2023-04-25T10:04:36;4.33;;;2.40;;
13032;SDS011;6583;42.632;23.298;2023-04-25T10:07:05;2.33;;;2.13;;
13032;SDS011;6583;42.632;23.298;2023-04-25T10:09:32;3.37;;;2.30;;
13032;SDS011;6583;42.632;23.298;2023-04-25T10:12:03;2.00;;;1.80;;
13032;SDS011;6583;42.632;23.298;2023-04-25T10:14:31;3.10;;;1.70;;
13032;SDS011;6583;42.632;23.298;2023-04-25T10:16:58;1.40;;;1.30;;
13032;SDS011;6583;42.632;23.298;2023-04-25T10:19:25;1.40;;;1.10;;
13032;SDS011;6583;42.632;23.298;2023-04-25T10:21:54;2.07;;;1.30;;
13032;SDS011;6583;42.632;23.298;2023-04-25T10:24:24;1.13;;;1.00;;
13032;SDS011;6583;42.632;23.298;2023-04-25T10:26:53;1.27;;;1.17;;
13032;SDS011;6583;42.632;23.298;2023-04-25T10:29:24;1.20;;;1.10;;
13032;SDS011;6583;42.632;23.298;2023-04-25T10:31:51;1.90;;;1.13;;
13032;SDS011;6583;42.632;23.298;2023-04-25T10:34:18;2.17;;;1.10;;
13032;SDS011;6583;42.632;23.298;2023-04-25T10:36:49;1.93;;;1.00;;
13032;SDS011;6583;42.632;23.298;2023-04-25T10:39:21;1.10;;;1.00;;
13032;SDS011;6583;42.632;23.298;2023-04-25T10:41:53;1.10;;;1.00;;
13032;SDS011;6583;42.632;23.298;2023-04-25T10:44:22;1.07;;;0.90;;
13032;SDS011;6583;42.632;23.298;2023-04-25T10:46:49;1.17;;;0.90;;
13032;SDS011;6583;42.632;23.298;2023-04-25T10:49:28;1.07;;;0.90;;
13032;SDS011;6583;42.632;23.298;2023-04-25T10:52:18;1.07;;;0.80;;
13032;SDS011;6583;42.632;23.298;2023-04-25T10:54:51;0.87;;;0.87;;
13032;SDS011;6583;42.632;23.298;2023-04-25T10:57:35;2.40;;;0.90;;
13032;SDS011;6583;42.632;23.298;2023-04-25T11:00:11;2.13;;;0.83;;
13032;SDS011;6583;42.632;23.298;2023-04-25T11:02:43;2.13;;;0.80;;
13032;SDS011;6583;42.632;23.298;2023-04-25T11:05:16;2.63;;;1.00;;
13032;SDS011;6583;42.632;23.298;2023-04-25T11:07:49;1.13;;;1.10;;
13032;SDS011;6583;42.632;23.298;2023-04-25T11:10:16;1.30;;;1.00;;
13032;SDS011;6583;42.632;23.298;2023-04-25T11:12:45;0.90;;;0.90;;
13032;SDS011;6583;42.632;23.298;2023-04-25T11:15:13;1.40;;;0.90;;
13032;SDS011;6583;42.632;23.298;2023-04-25T11:17:39;2.17;;;1.00;;
13032;SDS011;6583;42.632;23.298;2023-04-25T11:20:07;0.90;;;0.90;;
13032;SDS011;6583;42.632;23.298;2023-04-25T11:22:37;1.03;;;0.83;;
13032;SDS011;6583;42.632;23.298;2023-04-25T11:25:06;1.10;;;1.00;;
13032;SDS011;6583;42.632;23.298;2023-04-25T11:27:33;1.50;;;1.03;;
13032;SDS011;6583;42.632;23.298;2023-04-25T11:30:12;1.93;;;1.10;;
13032;SDS011;6583;42.632;23.298;2023-04-25T11:32:41;1.73;;;1.10;;
13032;SDS011;6583;42.632;23.298;2023-04-25T11:35:08;1.97;;;1.20;;
13032;SDS011;6583;42.632;23.298;2023-04-25T11:37:35;1.33;;;1.00;;
13032;SDS011;6583;42.632;23.298;2023-04-25T11:40:02;2.00;;;1.17;;
13032;SDS011;6583;42.632;23.298;2023-04-25T11:42:31;2.30;;;1.20;;
13032;SDS011;6583;42.632;23.298;2023-04-25T11:44:58;1.37;;;1.27;;
13032;SDS011;6583;42.632;23.298;2023-04-25T11:47:28;2.83;;;1.53;;
13032;SDS011;6583;42.632;23.298;2023-04-25T11:49:57;4.77;;;2.07;;
13032;SDS011;6583;42.632;23.298;2023-04-25T11:52:24;6.73;;;1.67;;
13032;SDS011;6583;42.632;23.298;2023-04-25T11:55:01;3.37;;;1.60;;
13032;SDS011;6583;42.632;23.298;2023-04-25T11:57:30;3.43;;;1.53;;
13032;SDS011;6583;42.632;23.298;2023-04-25T12:00:04;5.77;;;3.70;;
13032;SDS011;6583;42.632;23.298;2023-04-25T12:02:35;3.93;;;2.60;;
13032;SDS011;6583;42.632;23.298;2023-04-25T12:05:03;3.03;;;2.17;;
13032;SDS011;6583;42.632;23.298;2023-04-25T12:07:33;2.40;;;2.00;;
13032;SDS011;6583;42.632;23.298;2023-04-25T12:10:03;3.30;;;2.60;;
13032;SDS011;6583;42.632;23.298;2023-04-25T12:12:32;1.33;;;1.23;;
13032;SDS011;6583;42.632;23.298;2023-04-25T12:15:07;5.23;;;1.50;;
13032;SDS011;6583;42.632;23.298;2023-04-25T12:17:37;0.90;;;0.90;;
13032;SDS011;6583;42.632;23.298;2023-04-25T12:20:08;1.03;;;0.93;;
13032;SDS011;6583;42.632;23.298;2023-04-25T12:22:36;1.10;;;1.00;;
13032;SDS011;6583;42.632;23.298;2023-04-25T12:25:02;1.00;;;1.00;;
13032;SDS011;6583;42.632;23.298;2023-04-25T12:27:30;1.43;;;1.00;;
13032;SDS011;6583;42.632;23.298;2023-04-25T12:29:57;2.23;;;1.27;;
13032;SDS011;6583;42.632;23.298;2023-04-25T12:32:24;1.00;;;1.00;;
13032;SDS011;6583;42.632;23.298;2023-04-25T12:34:52;1.20;;;1.10;;
13032;SDS011;6583;42.632;23.298;2023-04-25T12:37:19;1.70;;;1.10;;
13032;SDS011;6583;42.632;23.298;2023-04-25T12:39:46;0.80;;;0.80;;
13032;SDS011;6583;42.632;23.298;2023-04-25T12:42:12;0.93;;;0.90;;
13032;SDS011;6583;42.632;23.298;2023-04-25T12:44:39;1.97;;;1.10;;
13032;SDS011;6583;42.632;23.298;2023-04-25T12:47:06;0.80;;;0.80;;
13032;SDS011;6583;42.632;23.298;2023-04-25T12:49:33;0.90;;;0.83;;
13032;SDS011;6583;42.632;23.298;2023-04-25T12:52:01;3.10;;;1.20;;
13032;SDS011;6583;42.632;23.298;2023-04-25T12:54:28;2.40;;;1.00;;
13032;SDS011;6583;42.632;23.298;2023-04-25T12:56:54;1.40;;;1.10;;
13032;SDS011;6583;42.632;23.298;2023-04-25T12:59:21;1.30;;;0.90;;
13032;SDS011;6583;42.632;23.298;2023-04-25T13:01:48;1.43;;;1.20;;
13032;SDS011;6583;42.632;23.298;2023-04-25T13:04:14;2.70;;;1.20;;
13032;SDS011;6583;42.632;23.298;2023-04-25T13:06:42;2.33;;;1.10;;
13032;SDS011;6583;42.632;23.298;2023-04-25T13:09:10;2.70;;;1.07;;
13032;SDS011;6583;42.632;23.298;2023-04-25T13:11:37;2.57;;;1.60;;
13032;SDS011;6583;42.632;23.298;2023-04-25T13:14:04;5.03;;;1.67;;
13032;SDS011;6583;42.632;23.298;2023-04-25T13:16:31;5.83;;;1.63;;
13032;SDS011;6583;42.632;23.298;2023-04-25T13:18:58;4.63;;;2.00;;
13032;SDS011;6583;42.632;23.298;2023-04-25T13:21:25;4.93;;;1.70;;
13032;SDS011;6583;42.632;23.298;2023-04-25T13:23:52;2.20;;;1.90;;
13032;SDS011;6583;42.632;23.298;2023-04-25T13:26:20;2.73;;;1.87;;
13032;SDS011;6583;42.632;23.298;2023-04-25T13:28:46;1.57;;;1.20;;
13032;SDS011;6583;42.632;23.298;2023-04-25T13:31:13;1.77;;;1.40;;
13032;SDS011;6583;42.632;23.298;2023-04-25T13:33:40;2.17;;;1.40;;
13032;SDS011;6583;42.632;23.298;2023-04-25T13:36:06;1.60;;;1.37;;
13032;SDS011;6583;42.632;23.298;2023-04-25T13:38:33;3.50;;;1.67;;
13032;SDS011;6583;42.632;23.298;2023-04-25T13:41:00;3.50;;;2.03;;
13032;SDS011;6583;42.632;23.298;2023-04-25T13:43:28;2.20;;;2.00;;
13032;SDS011;6583;42.632;23.298;2023-04-25T13:45:54;2.83;;;1.93;;
13032;SDS011;6583;42.632;23.298;2023-04-25T13:48:21;2.10;;;1.90;;
13032;SDS011;6583;42.632;23.298;2023-04-25T13:50:49;2.70;;;2.30;;
13032;SDS011;6583;42.632;23.298;2023-04-25T13:53:16;4.50;;;2.60;;
13032;SDS011;6583;42.632;23.298;2023-04-25T13:55:42;2.07;;;1.70;;
13032;SDS011;6583;42.632;23.298;2023-04-25T13:58:09;1.00;;;1.00;;
13032;SDS011;6583;42.632;23.298;2023-04-25T14:00:38;1.23;;;1.20;;
13032;SDS011;6583;42.632;23.298;2023-04-25T14:03:07;1.53;;;1.00;;
13032;SDS011;6583;42.632;23.298;2023-04-25T14:05:34;2.33;;;1.30;;
13032;SDS011;6583;42.632;23.298;2023-04-25T14:08:04;1.90;;;0.93;;
13032;SDS011;6583;42.632;23.298;2023-04-25T14:10:34;1.27;;;1.10;;
13032;SDS011;6583;42.632;23.298;2023-04-25T14:13:01;1.30;;;1.20;;
13032;SDS011;6583;42.632;23.298;2023-04-25T14:15:28;1.53;;;1.20;;
13032;SDS011;6583;42.632;23.298;2023-04-25T14:17:57;1.40;;;1.40;;
13032;SDS011;6583;42.632;23.298;2023-04-25T14:20:24;1.50;;;1.40;;
13032;SDS011;6583;42.632;23.298;2023-04-25T14:22:51;1.63;;;1.33;;
13032;SDS011;6583;42.632;23.298;2023-04-25T14:25:19;1.80;;;1.70;;
13032;SDS011;6583;42.632;23.298;2023-04-25T14:27:46;2.70;;;1.57;;
13032;SDS011;6583;42.632;23.298;2023-04-25T14:30:15;2.07;;;1.87;;
13032;SDS011;6583;42.632;23.298;2023-04-25T14:32:41;1.80;;;1.53;;
13032;SDS011;6583;42.632;23.298;2023-04-25T14:35:10;4.57;;;1.57;;
13032;SDS011;6583;42.632;23.298;2023-04-25T14:37:37;3.97;;;1.60;;
13032;SDS011;6583;42.632;23.298;2023-04-25T14:40:04;1.53;;;1.43;;
13032;SDS011;6583;42.632;23.298;2023-04-25T14:42:33;4.33;;;2.10;;
13032;SDS011;6583;42.632;23.298;2023-04-25T14:44:59;4.73;;;1.90;;